Time;durP1;ratioP1;P1;durP2;ratioP2;P2;SDS_P1;SDS_P2;PMS_P1;PMS_P2;Temp;Humidity;BMP_temperature;BMP_pressure;BME280_temperature;BME280_humidity;BME280_pressure;Samples;Min_cycle;Max_cycle;Signal;HPM_P1;HPM_P2
2022/04/22 00:00:12;;;;;;;11.95;10.73;;;;;;;;;;511090;28;1957;-79
2022/04/22 00:00:28;;;;;;;11.70;10.43;;;;;;;;;;514094;28;1560;-79
2022/04/22 00:00:43;;;;;;;13.32;10.48;;;;;;;;;;514027;28;1704;-79
2022/04/22 00:00:58;;;;;;;12.60;10.30;;;;;;;;;;515014;28;1779;-79
2022/04/22 00:01:14;;;;;;;11.90;10.57;;;;;;;;;;512267;28;1519;-79
2022/04/22 00:01:30;;;;;;;12.60;10.80;;;;;;;;;;513186;28;1389;-79
2022/04/22 00:01:45;;;;;;;12.63;10.80;;;;;;;;;;512141;28;1579;-79
2022/04/22 00:02:00;;;;;;;12.05;10.68;;;;;;;;;;512657;28;1472;-80
2022/04/22 00:02:16;;;;;;;12.73;10.60;;;;;;;;;;514043;28;1854;-80
2022/04/22 00:02:31;;;;;;;12.83;10.47;;;;;;;;;;514617;28;1540;-80
2022/04/22 00:02:46;;;;;;;11.45;10.10;;;;;;;;;;514555;28;1693;-80
2022/04/22 00:03:02;;;;;;;11.80;10.33;;;;;;;;;;512732;28;1500;-80
2022/04/22 00:03:18;;;;;;;11.55;10.32;;;;;;;;;;512514;28;1566;-80
2022/04/22 00:03:33;;;;;;;11.63;10.25;;;;;;;;;;513287;28;1579;-80
2022/04/22 00:03:48;;;;;;;12.23;10.53;;;;;;;;;;512451;28;1680;-80
2022/04/22 00:04:04;;;;;;;12.67;10.80;;;;;;;;;;512761;28;1616;-80
2022/04/22 00:04:19;;;;;;;12.68;10.55;;;;;;;;;;510339;28;1653;-80
2022/04/22 00:04:34;;;;;;;12.50;10.63;;;;;;;;;;510582;28;1543;-80
2022/04/22 00:04:50;;;;;;;12.63;10.87;;;;;;;;;;510753;28;1524;-80
2022/04/22 00:05:05;;;;;;;13.10;10.95;;;;;;;;;;512758;28;1514;-80
2022/04/22 00:05:21;;;;;;;12.43;10.60;;;;;;;;;;512411;28;1618;-80
2022/04/22 00:05:37;;;;;;;12.02;10.23;;;;;;;;;;512650;28;1966;-80
2022/04/22 00:05:52;;;;;;;11.70;10.10;;;;;;;;;;514588;28;1798;-80
2022/04/22 00:06:08;;;;;;;11.47;10.27;;;;;;;;;;515153;28;1890;-80
2022/04/22 00:06:23;;;;;;;11.50;10.30;;;;;;;;;;516714;28;1798;-80
2022/04/22 00:06:39;;;;;;;11.23;10.03;;;;;;;;;;515271;28;1669;-80
2022/04/22 00:06:54;;;;;;;12.30;10.20;;;;;;;;;;516576;28;1683;-80
2022/04/22 00:07:09;;;;;;;13.20;10.60;;;;;;;;;;514587;28;1432;-79
2022/04/22 00:07:27;;;;;;;13.03;10.80;;;;;;;;;;512764;28;1690;-79
2022/04/22 00:07:43;;;;;;;12.65;10.68;;;;;;;;;;510468;28;1561;-80
2022/04/22 00:07:58;;;;;;;11.52;10.30;;;;;;;;;;512167;28;1540;-80
2022/04/22 00:08:14;;;;;;;11.60;10.40;;;;;;;;;;510706;29;1552;-80
2022/04/22 00:08:30;;;;;;;11.93;10.63;;;;;;;;;;511368;29;1477;-80
2022/04/22 00:08:45;;;;;;;11.95;10.70;;;;;;;;;;513460;28;1894;-80
2022/04/22 00:09:00;;;;;;;11.87;10.60;;;;;;;;;;513851;28;1362;-80
2022/04/22 00:09:15;;;;;;;11.97;10.43;;;;;;;;;;513029;28;1607;-80
2022/04/22 00:09:31;;;;;;;13.52;10.73;;;;;;;;;;513524;28;1532;-80
2022/04/22 00:09:46;;;;;;;13.30;10.63;;;;;;;;;;515277;28;1603;-80
2022/04/22 00:10:04;;;;;;;11.83;10.60;;;;;;;;;;516991;28;1620;-80
2022/04/22 00:10:20;;;;;;;12.15;10.80;;;;;;;;;;517039;28;1501;-80
2022/04/22 00:11:28;;;;;;;12.50;10.50;;;;;;;;;;517210;28;1530;-80
2022/04/22 00:11:30;;;;;;;12.85;10.77;;;;;;;;;;518671;28;1506;-79
2022/04/22 00:11:45;;;;;;;12.32;11.02;;;;;;;;;;516635;28;1551;-80
2022/04/22 00:12:00;;;;;;;12.03;10.73;;;;;;;;;;517126;28;1384;-80
2022/04/22 00:12:16;;;;;;;11.88;10.68;;;;;;;;;;514432;28;1709;-80
2022/04/22 00:12:31;;;;;;;12.53;10.60;;;;;;;;;;514882;28;1571;-80
2022/04/22 00:12:47;;;;;;;12.80;10.65;;;;;;;;;;515115;28;1851;-80
2022/04/22 00:13:02;;;;;;;11.90;10.43;;;;;;;;;;515033;28;1595;-80
2022/04/22 00:13:18;;;;;;;11.90;10.35;;;;;;;;;;513252;28;1610;-80
2022/04/22 00:13:33;;;;;;;12.30;10.70;;;;;;;;;;512957;28;1556;-80
2022/04/22 00:13:49;;;;;;;12.53;10.87;;;;;;;;;;512834;28;1659;-80
2022/04/22 00:14:04;;;;;;;12.73;11.00;;;;;;;;;;512577;28;2101;-80
2022/04/22 00:14:20;;;;;;;12.18;10.75;;;;;;;;;;512686;28;1661;-80
2022/04/22 00:14:35;;;;;;;11.93;10.63;;;;;;;;;;513082;28;1835;-80
2022/04/22 00:14:51;;;;;;;12.70;11.15;;;;;;;;;;512894;28;1393;-80
2022/04/22 00:15:07;;;;;;;12.93;11.07;;;;;;;;;;515442;28;1739;-80
2022/04/22 00:15:23;;;;;;;12.85;10.57;;;;;;;;;;514731;28;1465;-80
2022/04/22 00:15:38;;;;;;;12.85;10.98;;;;;;;;;;514773;28;1591;-80
2022/04/22 00:15:53;;;;;;;12.53;10.97;;;;;;;;;;515501;28;1522;-80
2022/04/22 00:16:09;;;;;;;13.07;11.07;;;;;;;;;;515330;28;1484;-80
2022/04/22 00:16:25;;;;;;;13.13;11.37;;;;;;;;;;516138;28;1456;-80
2022/04/22 00:16:41;;;;;;;12.77;10.98;;;;;;;;;;515011;28;1995;-79
2022/04/22 00:16:56;;;;;;;13.23;11.00;;;;;;;;;;515081;28;1475;-79
2022/04/22 00:17:11;;;;;;;13.43;11.23;;;;;;;;;;514758;28;1686;-80
2022/04/22 00:17:27;;;;;;;12.95;11.20;;;;;;;;;;514743;28;1556;-80
2022/04/22 00:17:43;;;;;;;12.47;11.10;;;;;;;;;;514933;28;1643;-80
2022/04/22 00:17:58;;;;;;;12.63;11.02;;;;;;;;;;514786;28;1521;-80
2022/04/22 00:18:14;;;;;;;12.87;10.90;;;;;;;;;;514860;28;1559;-79
2022/04/22 00:18:31;;;;;;;12.60;10.70;;;;;;;;;;515457;28;1474;-80
2022/04/22 00:18:46;;;;;;;12.25;10.65;;;;;;;;;;515872;28;1569;-80
2022/04/22 00:19:02;;;;;;;12.30;10.68;;;;;;;;;;515132;28;1832;-80
2022/04/22 00:19:17;;;;;;;12.63;10.80;;;;;;;;;;515324;28;1540;-80
2022/04/22 00:19:33;;;;;;;13.20;11.13;;;;;;;;;;514412;28;1711;-80
2022/04/22 00:19:48;;;;;;;13.67;11.10;;;;;;;;;;515386;28;1432;-80
2022/04/22 00:20:04;;;;;;;13.70;10.50;;;;;;;;;;516109;28;1515;-80
2022/04/22 00:20:19;;;;;;;12.40;10.38;;;;;;;;;;516685;28;1424;-79
2022/04/22 00:20:35;;;;;;;12.00;10.70;;;;;;;;;;516071;28;1627;-79
2022/04/22 00:20:50;;;;;;;13.27;10.87;;;;;;;;;;516995;28;1499;-79
2022/04/22 00:21:07;;;;;;;13.35;10.85;;;;;;;;;;516657;28;1633;-79
2022/04/22 00:21:22;;;;;;;12.60;10.52;;;;;;;;;;515032;28;1548;-79
2022/04/22 00:21:41;;;;;;;12.73;10.50;;;;;;;;;;514949;28;1757;-79
2022/04/22 00:21:57;;;;;;;13.15;11.07;;;;;;;;;;515148;28;1633;-80
2022/04/22 00:22:12;;;;;;;12.43;11.13;;;;;;;;;;513990;28;1435;-80
2022/04/22 00:22:27;;;;;;;12.15;10.85;;;;;;;;;;513808;28;1858;-80
2022/04/22 00:22:44;;;;;;;13.17;10.60;;;;;;;;;;515386;28;1467;-80
2022/04/22 00:23:00;;;;;;;12.80;10.40;;;;;;;;;;516021;28;1572;-80
2022/04/22 00:23:15;;;;;;;11.50;10.30;;;;;;;;;;517773;28;1627;-80
2022/04/22 00:23:30;;;;;;;12.15;10.68;;;;;;;;;;519112;28;1459;-80
2022/04/22 00:23:46;;;;;;;13.60;10.90;;;;;;;;;;518123;28;1775;-80
2022/04/22 00:24:01;;;;;;;12.88;10.82;;;;;;;;;;518648;28;1419;-80
2022/04/22 00:24:17;;;;;;;13.00;11.20;;;;;;;;;;519290;28;1617;-80
2022/04/22 00:24:32;;;;;;;13.40;11.30;;;;;;;;;;518118;28;1419;-80
2022/04/22 00:24:48;;;;;;;13.27;11.00;;;;;;;;;;517693;28;1604;-80
2022/04/22 00:25:04;;;;;;;13.50;10.90;;;;;;;;;;519134;28;1461;-80
2022/04/22 00:25:19;;;;;;;13.27;11.00;;;;;;;;;;518450;28;1670;-80
2022/04/22 00:25:34;;;;;;;12.20;10.88;;;;;;;;;;516625;28;1559;-80
2022/04/22 00:25:49;;;;;;;12.57;10.77;;;;;;;;;;516329;28;1922;-80
2022/04/22 00:26:05;;;;;;;13.47;10.93;;;;;;;;;;519561;28;1474;-80
2022/04/22 00:26:21;;;;;;;12.98;10.95;;;;;;;;;;518668;28;1589;-80
2022/04/22 00:26:36;;;;;;;12.65;11.15;;;;;;;;;;519122;28;1551;-80
2022/04/22 00:26:52;;;;;;;13.57;11.70;;;;;;;;;;517014;28;1613;-80
2022/04/22 00:27:08;;;;;;;13.68;11.68;;;;;;;;;;515347;28;1469;-80
2022/04/22 00:27:23;;;;;;;13.70;11.57;;;;;;;;;;514551;28;1595;-80
2022/04/22 00:27:39;;;;;;;13.97;11.23;;;;;;;;;;512801;28;1449;-80
2022/04/22 00:27:54;;;;;;;15.50;10.98;;;;;;;;;;512224;28;1582;-80
2022/04/22 00:28:10;;;;;;;15.30;11.07;;;;;;;;;;512920;28;1609;-80
2022/04/22 00:28:25;;;;;;;13.48;11.15;;;;;;;;;;512840;28;1632;-80
2022/04/22 00:28:40;;;;;;;12.13;10.63;;;;;;;;;;513282;28;1410;-80
2022/04/22 00:28:56;;;;;;;12.13;10.57;;;;;;;;;;514677;28;1682;-80
2022/04/22 00:29:11;;;;;;;12.88;10.27;;;;;;;;;;515245;28;1496;-80
2022/04/22 00:29:27;;;;;;;12.73;10.17;;;;;;;;;;513107;28;1630;-80
2022/04/22 00:29:42;;;;;;;12.48;10.63;;;;;;;;;;515315;28;2056;-79
2022/04/22 00:29:57;;;;;;;12.20;10.83;;;;;;;;;;514492;28;1772;-80
2022/04/22 00:30:13;;;;;;;12.17;10.87;;;;;;;;;;513165;28;1644;-80
2022/04/22 00:30:29;;;;;;;12.85;11.23;;;;;;;;;;513049;28;1631;-80
2022/04/22 00:30:45;;;;;;;12.93;11.00;;;;;;;;;;514770;28;1478;-80
2022/04/22 00:31:02;;;;;;;12.60;10.90;;;;;;;;;;515014;28;1505;-80
2022/04/22 00:31:17;;;;;;;12.30;11.00;;;;;;;;;;515811;28;1681;-80
2022/04/22 00:31:33;;;;;;;12.37;11.07;;;;;;;;;;517444;28;1451;-80
2022/04/22 00:31:48;;;;;;;12.63;11.23;;;;;;;;;;517135;28;1660;-80
2022/04/22 00:32:04;;;;;;;13.23;11.30;;;;;;;;;;517990;28;1479;-80
2022/04/22 00:32:20;;;;;;;14.30;11.73;;;;;;;;;;516340;28;1654;-80
2022/04/22 00:32:35;;;;;;;14.93;11.82;;;;;;;;;;515882;28;1446;-80
2022/04/22 00:32:51;;;;;;;14.50;11.70;;;;;;;;;;515084;28;1587;-80
2022/04/22 00:33:06;;;;;;;13.20;11.13;;;;;;;;;;516901;28;1433;-80
2022/04/22 00:33:22;;;;;;;13.00;10.73;;;;;;;;;;517180;28;1743;-80
2022/04/22 00:33:37;;;;;;;13.52;11.30;;;;;;;;;;517280;28;1464;-80
2022/04/22 00:33:52;;;;;;;13.23;11.63;;;;;;;;;;517925;28;1491;-80
2022/04/22 00:34:08;;;;;;;14.02;11.48;;;;;;;;;;515069;28;1425;-80
2022/04/22 00:34:23;;;;;;;13.60;11.27;;;;;;;;;;512646;28;1716;-79
2022/04/22 00:34:38;;;;;;;13.07;11.23;;;;;;;;;;513645;28;1550;-79
2022/04/22 00:34:54;;;;;;;12.52;11.00;;;;;;;;;;512732;28;1691;-79
2022/04/22 00:35:09;;;;;;;13.20;10.73;;;;;;;;;;513019;28;1536;-80
2022/04/22 00:35:25;;;;;;;13.27;10.80;;;;;;;;;;512476;28;1521;-80
2022/04/22 00:35:40;;;;;;;13.02;11.57;;;;;;;;;;512819;28;1545;-80
2022/04/22 00:35:56;;;;;;;14.07;11.73;;;;;;;;;;512883;28;1614;-80
2022/04/22 00:36:12;;;;;;;14.03;11.33;;;;;;;;;;515393;28;1429;-80
2022/04/22 00:36:27;;;;;;;14.25;11.32;;;;;;;;;;517293;28;1673;-79
2022/04/22 00:36:43;;;;;;;13.70;11.23;;;;;;;;;;514964;28;1535;-79
2022/04/22 00:36:58;;;;;;;12.68;11.15;;;;;;;;;;514940;28;1769;-80
2022/04/22 00:37:13;;;;;;;12.47;10.97;;;;;;;;;;513277;28;1476;-80
2022/04/22 00:37:29;;;;;;;12.70;10.97;;;;;;;;;;512471;28;1681;-80
2022/04/22 00:37:46;;;;;;;13.20;11.23;;;;;;;;;;512675;28;1507;-80
2022/04/22 00:38:02;;;;;;;13.13;11.02;;;;;;;;;;512972;28;1540;-80
2022/04/22 00:38:17;;;;;;;13.50;10.97;;;;;;;;;;512879;28;1485;-80
2022/04/22 00:38:34;;;;;;;13.37;11.07;;;;;;;;;;513748;28;1530;-80
2022/04/22 00:38:49;;;;;;;12.55;11.00;;;;;;;;;;514465;28;1568;-80
2022/04/22 00:39:05;;;;;;;12.17;10.87;;;;;;;;;;516448;28;1404;-80
2022/04/22 00:39:20;;;;;;;12.88;11.10;;;;;;;;;;515875;28;1716;-80
2022/04/22 00:39:35;;;;;;;13.00;11.07;;;;;;;;;;513218;28;1488;-80
2022/04/22 00:39:51;;;;;;;13.45;11.15;;;;;;;;;;512828;28;1837;-80
2022/04/22 00:40:06;;;;;;;13.77;11.20;;;;;;;;;;513235;28;1448;-80
2022/04/22 00:40:22;;;;;;;13.40;10.95;;;;;;;;;;513748;28;1473;-80
2022/04/22 00:40:38;;;;;;;12.30;10.73;;;;;;;;;;513556;28;1410;-80
2022/04/22 00:40:55;;;;;;;12.02;10.73;;;;;;;;;;513442;28;1682;-80
2022/04/22 00:41:11;;;;;;;12.27;10.93;;;;;;;;;;514855;28;1585;-80
2022/04/22 00:41:26;;;;;;;13.90;11.60;;;;;;;;;;515722;28;1543;-80
2022/04/22 00:41:42;;;;;;;14.85;12.07;;;;;;;;;;514157;28;1618;-80
2022/04/22 00:42:06;;;;;;;13.52;11.80;;;;;;;;;;515217;28;1517;-80
2022/04/22 00:42:21;;;;;;;13.57;11.63;;;;;;;;;;516749;28;1479;-80
2022/04/22 00:42:38;;;;;;;13.55;11.68;;;;;;;;;;516811;28;1802;-80
2022/04/22 00:42:53;;;;;;;13.52;11.82;;;;;;;;;;516958;28;1404;-80
2022/04/22 00:43:21;;;;;;;13.98;11.80;;;;;;;;;;514247;28;1598;-80
2022/04/22 00:43:45;;;;;;;13.27;11.23;;;;;;;;;;512468;28;1426;-80
2022/04/22 00:44:00;;;;;;;13.25;11.70;;;;;;;;;;512841;28;1505;-80
2022/04/22 00:44:15;;;;;;;13.43;11.73;;;;;;;;;;511011;28;1480;-80
2022/04/22 00:44:30;;;;;;;13.90;11.57;;;;;;;;;;511500;28;1538;-80
2022/04/22 00:44:46;;;;;;;14.07;11.83;;;;;;;;;;511005;29;1470;-80
2022/04/22 00:45:01;;;;;;;13.80;11.93;;;;;;;;;;509217;29;1583;-80
2022/04/22 00:45:19;;;;;;;12.88;11.43;;;;;;;;;;508291;29;1591;-80
2022/04/22 00:45:34;;;;;;;14.85;11.52;;;;;;;;;;510217;29;1549;-80
2022/04/22 00:45:51;;;;;;;15.33;11.60;;;;;;;;;;510911;28;1911;-80
2022/04/22 00:46:07;;;;;;;13.23;11.27;;;;;;;;;;510611;29;1870;-80
2022/04/22 00:46:22;;;;;;;13.70;12.00;;;;;;;;;;510804;29;1429;-80
2022/04/22 00:46:38;;;;;;;13.57;12.10;;;;;;;;;;510688;28;1478;-80
2022/04/22 00:46:53;;;;;;;12.80;11.40;;;;;;;;;;512123;28;1409;-80
2022/04/22 00:47:08;;;;;;;14.10;11.77;;;;;;;;;;511521;28;1547;-80
2022/04/22 00:47:24;;;;;;;15.45;12.02;;;;;;;;;;513651;28;1512;-80
2022/04/22 00:47:40;;;;;;;13.83;11.53;;;;;;;;;;510512;28;1482;-80
2022/04/22 00:47:55;;;;;;;13.05;11.55;;;;;;;;;;511409;28;1969;-80
2022/04/22 00:48:11;;;;;;;13.88;11.60;;;;;;;;;;511727;28;1507;-80
2022/04/22 00:48:26;;;;;;;13.38;11.40;;;;;;;;;;512575;28;1612;-80
2022/04/22 00:48:43;;;;;;;12.93;11.40;;;;;;;;;;511904;28;1722;-80
2022/04/22 00:48:58;;;;;;;12.55;11.20;;;;;;;;;;513292;28;1497;-80
2022/04/22 00:49:13;;;;;;;12.95;11.55;;;;;;;;;;512897;28;1571;-80
2022/04/22 00:49:29;;;;;;;13.90;11.67;;;;;;;;;;514038;28;1481;-80
2022/04/22 00:49:44;;;;;;;14.33;11.43;;;;;;;;;;514878;28;1551;-80
2022/04/22 00:49:59;;;;;;;13.52;11.40;;;;;;;;;;513296;28;1598;-80
2022/04/22 00:50:15;;;;;;;13.27;11.63;;;;;;;;;;512542;28;1666;-80
2022/04/22 00:50:30;;;;;;;13.48;11.75;;;;;;;;;;512594;28;1909;-80
2022/04/22 00:50:46;;;;;;;13.77;11.73;;;;;;;;;;512549;28;1771;-80
2022/04/22 00:51:04;;;;;;;13.38;11.65;;;;;;;;;;511646;28;1515;-80
2022/04/22 00:51:22;;;;;;;13.32;11.52;;;;;;;;;;511526;28;1450;-80
2022/04/22 00:51:37;;;;;;;13.07;11.32;;;;;;;;;;513456;28;1519;-80
2022/04/22 00:51:53;;;;;;;13.05;11.30;;;;;;;;;;514671;28;1626;-80
2022/04/22 00:52:09;;;;;;;13.18;10.93;;;;;;;;;;515167;28;1453;-80
2022/04/22 00:52:25;;;;;;;13.13;10.88;;;;;;;;;;515384;28;1612;-80
2022/04/22 00:52:41;;;;;;;13.10;11.10;;;;;;;;;;516536;28;1398;-80
2022/04/22 00:52:56;;;;;;;13.82;11.60;;;;;;;;;;515723;28;1745;-79
2022/04/22 00:53:13;;;;;;;13.63;11.97;;;;;;;;;;515881;28;1588;-79
2022/04/22 00:53:28;;;;;;;13.80;11.85;;;;;;;;;;516679;28;1472;-80
2022/04/22 00:53:46;;;;;;;13.47;11.60;;;;;;;;;;514722;28;1543;-80
2022/04/22 00:54:03;;;;;;;14.05;11.70;;;;;;;;;;514701;28;1574;-80
2022/04/22 00:54:19;;;;;;;14.50;11.63;;;;;;;;;;515353;28;1385;-80
2022/04/22 00:54:34;;;;;;;13.48;11.63;;;;;;;;;;515238;28;1576;-80
2022/04/22 00:54:50;;;;;;;13.73;11.97;;;;;;;;;;515131;28;1465;-80
2022/04/22 00:55:07;;;;;;;14.17;11.83;;;;;;;;;;514132;28;1661;-80
2022/04/22 00:55:22;;;;;;;14.68;11.35;;;;;;;;;;512731;28;1406;-80
2022/04/22 00:55:40;;;;;;;15.80;11.60;;;;;;;;;;512925;28;1969;-80
2022/04/22 00:55:56;;;;;;;14.75;11.75;;;;;;;;;;513149;28;1519;-80
2022/04/22 00:56:12;;;;;;;12.95;11.50;;;;;;;;;;512078;28;1453;-80
2022/04/22 00:56:28;;;;;;;13.10;11.38;;;;;;;;;;514568;28;1461;-80
2022/04/22 00:56:44;;;;;;;14.40;11.65;;;;;;;;;;515363;28;1567;-80
2022/04/22 00:57:00;;;;;;;14.27;11.65;;;;;;;;;;513892;28;1613;-79
2022/04/22 00:57:18;;;;;;;13.40;11.32;;;;;;;;;;514237;28;1549;-79
2022/04/22 00:57:33;;;;;;;13.63;11.57;;;;;;;;;;513250;28;1413;-80
2022/04/22 00:57:50;;;;;;;13.83;11.67;;;;;;;;;;515722;28;1485;-80
2022/04/22 00:58:07;;;;;;;13.88;11.73;;;;;;;;;;514202;28;1980;-80
2022/04/22 00:58:22;;;;;;;13.25;11.32;;;;;;;;;;514688;28;2107;-80
2022/04/22 00:58:40;;;;;;;12.67;11.30;;;;;;;;;;514571;28;1544;-80
2022/04/22 00:58:57;;;;;;;12.77;11.43;;;;;;;;;;514174;28;1433;-80
2022/04/22 00:59:13;;;;;;;13.15;11.75;;;;;;;;;;513993;28;1617;-80
2022/04/22 00:59:32;;;;;;;13.25;11.73;;;;;;;;;;515946;28;1460;-80
2022/04/22 00:59:48;;;;;;;12.63;11.18;;;;;;;;;;515425;28;1535;-80
2022/04/22 01:00:04;;;;;;;13.65;11.25;;;;;;;;;;514802;28;1562;-80
2022/04/22 01:00:20;;;;;;;13.73;11.30;;;;;;;;;;515172;28;1560;-80
2022/04/22 01:00:36;;;;;;;13.15;11.63;;;;;;;;;;514936;28;1429;-80
2022/04/22 01:00:52;;;;;;;12.88;11.55;;;;;;;;;;514791;28;1933;-80
2022/04/22 01:01:07;;;;;;;12.93;11.30;;;;;;;;;;515009;28;1521;-80
2022/04/22 01:01:24;;;;;;;13.32;11.40;;;;;;;;;;515042;28;1617;-80
2022/04/22 01:01:39;;;;;;;13.55;11.60;;;;;;;;;;514764;28;1557;-80
2022/04/22 01:01:55;;;;;;;14.38;11.93;;;;;;;;;;514826;28;1563;-80
2022/04/22 01:02:10;;;;;;;14.60;11.80;;;;;;;;;;515321;28;1551;-80
2022/04/22 01:02:25;;;;;;;14.93;11.67;;;;;;;;;;515068;28;1583;-80
2022/04/22 01:02:41;;;;;;;14.68;12.02;;;;;;;;;;514983;28;1440;-80
2022/04/22 01:02:56;;;;;;;13.70;12.03;;;;;;;;;;515620;28;2287;-80
2022/04/22 01:03:11;;;;;;;13.97;12.07;;;;;;;;;;514714;28;1583;-80
2022/04/22 01:03:28;;;;;;;14.43;12.10;;;;;;;;;;514566;28;1641;-80
2022/04/22 01:09:47;;;;;;;13.95;12.02;;;;;;;;;;514328;28;1596;-80
2022/04/22 01:09:48;;;;;;;14.13;11.77;;;;;;;;;;516921;28;1559;-80
2022/04/22 01:10:05;;;;;;;14.15;12.13;;;;;;;;;;517010;28;1504;-79
2022/04/22 01:10:21;;;;;;;14.82;12.63;;;;;;;;;;516784;28;1543;-80
2022/04/22 01:10:37;;;;;;;15.23;12.73;;;;;;;;;;516506;28;1495;-80
2022/04/22 01:10:52;;;;;;;15.20;12.60;;;;;;;;;;514229;28;1645;-80
2022/04/22 01:11:08;;;;;;;15.10;12.47;;;;;;;;;;515408;28;1429;-80
2022/04/22 01:11:27;;;;;;;15.27;12.43;;;;;;;;;;516810;28;1667;-80
2022/04/22 01:11:42;;;;;;;15.20;12.20;;;;;;;;;;514619;28;1499;-80
2022/04/22 01:11:59;;;;;;;14.10;12.13;;;;;;;;;;514454;28;1676;-80
2022/04/22 01:12:15;;;;;;;15.02;12.18;;;;;;;;;;514265;28;1471;-80
2022/04/22 01:12:31;;;;;;;15.05;12.18;;;;;;;;;;514338;28;1519;-80
2022/04/22 01:12:48;;;;;;;14.20;12.00;;;;;;;;;;515186;28;1748;-82
2022/04/22 01:13:03;;;;;;;14.13;11.82;;;;;;;;;;515180;28;1634;-80
2022/04/22 01:13:20;;;;;;;14.15;12.00;;;;;;;;;;515668;28;1448;-80
2022/04/22 01:13:35;;;;;;;14.75;12.27;;;;;;;;;;514964;28;1628;-80
2022/04/22 01:13:51;;;;;;;14.23;12.20;;;;;;;;;;513953;28;1675;-80
2022/04/22 01:14:07;;;;;;;14.43;12.13;;;;;;;;;;515056;28;1441;-80
2022/04/22 01:14:22;;;;;;;14.38;11.80;;;;;;;;;;513358;28;2038;-80
2022/04/22 01:14:39;;;;;;;13.85;11.60;;;;;;;;;;514632;28;1563;-80
2022/04/22 01:14:55;;;;;;;14.00;11.70;;;;;;;;;;511975;28;1564;-80
2022/04/22 01:15:10;;;;;;;14.43;11.88;;;;;;;;;;511074;28;1470;-80
2022/04/22 01:15:26;;;;;;;14.40;12.15;;;;;;;;;;510334;28;1547;-80
2022/04/22 01:15:41;;;;;;;14.17;12.03;;;;;;;;;;511013;29;1534;-80
2022/04/22 01:15:57;;;;;;;13.55;11.85;;;;;;;;;;510274;29;1573;-80
2022/04/22 01:16:12;;;;;;;13.50;11.77;;;;;;;;;;510857;29;1489;-80
2022/04/22 01:16:28;;;;;;;14.30;11.85;;;;;;;;;;512730;28;1528;-80
2022/04/22 01:16:43;;;;;;;14.65;12.02;;;;;;;;;;512673;28;1882;-80
2022/04/22 01:17:00;;;;;;;13.67;11.77;;;;;;;;;;512349;28;1583;-80
2022/04/22 01:17:16;;;;;;;12.93;11.40;;;;;;;;;;511979;28;1521;-80
2022/04/22 01:17:31;;;;;;;13.40;11.48;;;;;;;;;;511914;28;1509;-80
2022/04/22 01:17:47;;;;;;;14.13;11.90;;;;;;;;;;511392;28;1606;-80
2022/04/22 01:18:03;;;;;;;14.23;11.65;;;;;;;;;;509720;29;1481;-80
2022/04/22 01:18:19;;;;;;;13.70;11.60;;;;;;;;;;508203;29;1537;-80
2022/04/22 01:18:35;;;;;;;13.13;11.63;;;;;;;;;;509567;28;1537;-80
2022/04/22 01:18:50;;;;;;;13.70;11.98;;;;;;;;;;508389;29;1555;-80
2022/04/22 01:19:06;;;;;;;14.23;12.27;;;;;;;;;;509358;29;1426;-80
2022/04/22 01:19:21;;;;;;;14.97;12.03;;;;;;;;;;510567;28;1616;-80
2022/04/22 01:19:36;;;;;;;15.02;12.23;;;;;;;;;;510874;28;1418;-80
2022/04/22 01:19:53;;;;;;;13.80;11.90;;;;;;;;;;510855;28;1717;-80
2022/04/22 01:20:09;;;;;;;13.55;11.80;;;;;;;;;;513079;28;1611;-80
2022/04/22 01:20:24;;;;;;;14.40;12.30;;;;;;;;;;514508;28;1476;-80
2022/04/22 01:20:40;;;;;;;14.80;12.40;;;;;;;;;;514841;28;1476;-80
2022/04/22 01:21:00;;;;;;;15.25;12.18;;;;;;;;;;516677;28;2102;-80
2022/04/22 01:21:15;;;;;;;14.15;11.77;;;;;;;;;;516638;28;2156;-80
2022/04/22 01:21:31;;;;;;;14.73;11.83;;;;;;;;;;516419;28;1669;-80
2022/04/22 01:21:46;;;;;;;14.45;11.70;;;;;;;;;;516811;28;1444;-80
2022/04/22 01:22:02;;;;;;;14.17;12.07;;;;;;;;;;516760;28;1475;-80
2022/04/22 01:22:17;;;;;;;14.90;12.27;;;;;;;;;;517154;28;1410;-80
2022/04/22 01:22:32;;;;;;;14.90;12.23;;;;;;;;;;514597;28;1535;-80
2022/04/22 01:22:48;;;;;;;14.27;12.27;;;;;;;;;;513137;28;1523;-80
2022/04/22 01:23:03;;;;;;;13.80;12.13;;;;;;;;;;512767;28;1524;-80
2022/04/22 01:23:18;;;;;;;14.47;12.00;;;;;;;;;;511356;28;1524;-80
2022/04/22 01:23:34;;;;;;;14.73;12.13;;;;;;;;;;511295;28;1490;-80
2022/04/22 01:23:50;;;;;;;14.10;12.25;;;;;;;;;;509097;29;1511;-80
2022/04/22 01:24:06;;;;;;;14.38;12.25;;;;;;;;;;507550;29;1625;-80
2022/04/22 01:24:21;;;;;;;14.07;11.98;;;;;;;;;;507467;29;1617;-80
2022/04/22 01:24:37;;;;;;;14.63;12.23;;;;;;;;;;509697;29;1708;-80
2022/04/22 01:24:56;;;;;;;15.15;12.57;;;;;;;;;;511335;29;1521;-80
2022/04/22 01:25:11;;;;;;;15.05;12.60;;;;;;;;;;511706;28;1513;-80
2022/04/22 01:25:27;;;;;;;14.23;12.20;;;;;;;;;;513078;28;1588;-80
2022/04/22 01:25:43;;;;;;;14.17;12.23;;;;;;;;;;513750;28;1938;-80
2022/04/22 01:26:00;;;;;;;14.77;12.35;;;;;;;;;;515246;28;1676;-80
2022/04/22 01:26:16;;;;;;;14.75;12.15;;;;;;;;;;514401;28;2073;-80
2022/04/22 01:26:32;;;;;;;14.77;12.20;;;;;;;;;;514716;28;1512;-80
2022/04/22 01:26:50;;;;;;;14.85;12.38;;;;;;;;;;514304;28;2132;-80
2022/04/22 01:27:07;;;;;;;14.57;12.43;;;;;;;;;;516245;28;1841;-79
2022/04/22 01:27:22;;;;;;;14.40;12.60;;;;;;;;;;516848;28;1715;-79
2022/04/22 01:27:37;;;;;;;14.93;12.50;;;;;;;;;;514702;28;1591;-79
2022/04/22 01:27:54;;;;;;;15.30;12.20;;;;;;;;;;514108;28;1759;-79
2022/04/22 01:28:10;;;;;;;15.77;12.25;;;;;;;;;;515528;28;1491;-79
2022/04/22 01:28:26;;;;;;;14.70;12.38;;;;;;;;;;516253;28;1558;-80
2022/04/22 01:28:42;;;;;;;14.75;12.63;;;;;;;;;;516849;28;1466;-80
2022/04/22 01:28:58;;;;;;;14.85;12.10;;;;;;;;;;514671;28;1518;-80
2022/04/22 01:29:13;;;;;;;15.45;12.15;;;;;;;;;;512738;28;1607;-80
2022/04/22 01:29:29;;;;;;;15.65;12.45;;;;;;;;;;513035;28;1749;-80
2022/04/22 01:29:44;;;;;;;14.60;11.93;;;;;;;;;;514084;28;2153;-80
2022/04/22 01:30:06;;;;;;;15.57;12.40;;;;;;;;;;514673;28;1486;-79
2022/04/22 01:30:22;;;;;;;15.30;12.43;;;;;;;;;;514538;28;1475;-79
2022/04/22 01:30:38;;;;;;;15.35;12.32;;;;;;;;;;514458;28;2100;-79
2022/04/22 01:30:57;;;;;;;15.20;12.20;;;;;;;;;;516109;28;1679;-79
2022/04/22 01:31:12;;;;;;;15.10;12.40;;;;;;;;;;518289;28;1631;-80
2022/04/22 01:31:28;;;;;;;15.38;12.43;;;;;;;;;;518924;28;1495;-79
2022/04/22 01:31:43;;;;;;;14.67;12.43;;;;;;;;;;516524;28;1602;-80
2022/04/22 01:32:00;;;;;;;14.32;12.38;;;;;;;;;;516687;28;1532;-80
2022/04/22 01:32:16;;;;;;;15.30;12.65;;;;;;;;;;516561;28;1627;-80
2022/04/22 01:32:31;;;;;;;16.50;12.97;;;;;;;;;;515892;28;1572;-80
2022/04/22 01:32:51;;;;;;;16.63;13.03;;;;;;;;;;514635;28;1617;-80
2022/04/22 01:33:06;;;;;;;16.88;13.32;;;;;;;;;;514869;28;1658;-79
2022/04/22 01:33:21;;;;;;;16.77;13.20;;;;;;;;;;514994;28;1527;-80
2022/04/22 01:33:37;;;;;;;15.52;13.00;;;;;;;;;;515651;28;1759;-79
2022/04/22 01:33:52;;;;;;;15.40;13.03;;;;;;;;;;516453;28;1480;-80
2022/04/22 01:34:08;;;;;;;16.00;13.30;;;;;;;;;;516672;28;1460;-80
2022/04/22 01:34:23;;;;;;;17.13;13.73;;;;;;;;;;516799;28;1706;-80
2022/04/22 01:34:38;;;;;;;16.67;13.77;;;;;;;;;;514621;28;1789;-80
2022/04/22 01:34:54;;;;;;;16.05;13.52;;;;;;;;;;515390;28;1779;-80
2022/04/22 01:35:09;;;;;;;16.70;14.10;;;;;;;;;;516844;28;1719;-80
2022/04/22 01:35:25;;;;;;;16.48;14.23;;;;;;;;;;516929;28;1412;-80
2022/04/22 01:35:40;;;;;;;16.13;13.80;;;;;;;;;;517144;28;1660;-80
2022/04/22 01:35:56;;;;;;;17.10;14.38;;;;;;;;;;517141;28;1489;-80
2022/04/22 01:36:11;;;;;;;17.57;14.20;;;;;;;;;;517015;28;1708;-80
2022/04/22 01:36:27;;;;;;;17.27;14.17;;;;;;;;;;517045;28;1504;-80
2022/04/22 01:36:43;;;;;;;17.52;14.70;;;;;;;;;;516756;28;1517;-80
2022/04/22 01:36:58;;;;;;;17.00;14.27;;;;;;;;;;514570;28;1567;-80
2022/04/22 01:37:14;;;;;;;17.17;14.02;;;;;;;;;;514685;28;1503;-80
2022/04/22 01:37:31;;;;;;;17.57;14.17;;;;;;;;;;514968;28;1576;-80
2022/04/22 01:37:47;;;;;;;17.75;14.63;;;;;;;;;;514676;28;1455;-80
2022/04/22 01:38:02;;;;;;;18.17;14.70;;;;;;;;;;514862;28;1604;-80
2022/04/22 01:38:18;;;;;;;19.35;14.68;;;;;;;;;;514798;28;1425;-80
2022/04/22 01:38:33;;;;;;;19.37;14.73;;;;;;;;;;515181;28;1701;-80
2022/04/22 01:38:48;;;;;;;17.77;14.90;;;;;;;;;;517136;28;1459;-80
2022/04/22 01:39:04;;;;;;;17.53;14.67;;;;;;;;;;516646;28;1631;-80
2022/04/22 01:39:19;;;;;;;18.13;14.47;;;;;;;;;;516914;28;1412;-80
2022/04/22 01:39:35;;;;;;;18.80;14.60;;;;;;;;;;516780;28;1446;-80
2022/04/22 01:39:51;;;;;;;17.75;14.30;;;;;;;;;;516485;28;1476;-80
2022/04/22 01:40:07;;;;;;;17.17;14.30;;;;;;;;;;516901;28;1456;-80
2022/04/22 01:40:23;;;;;;;16.98;14.57;;;;;;;;;;516252;28;1542;-80
2022/04/22 01:40:39;;;;;;;17.95;14.93;;;;;;;;;;516422;28;1483;-80
2022/04/22 01:40:57;;;;;;;18.20;14.93;;;;;;;;;;514674;28;1559;-80
2022/04/22 01:41:12;;;;;;;18.08;14.43;;;;;;;;;;513977;28;1495;-80
2022/04/22 01:41:29;;;;;;;19.35;14.77;;;;;;;;;;514582;28;1526;-80
2022/04/22 01:41:44;;;;;;;20.38;15.27;;;;;;;;;;513607;28;1526;-80